createdAt,value
2023-02-22T00:04:52.688Z,14.80
2023-02-22T00:07:21.355Z,15.02
2023-02-22T00:09:49.446Z,14.13
2023-02-22T00:12:17.319Z,15.73
2023-02-22T00:14:44.993Z,14.38
2023-02-22T00:17:13.473Z,13.95
2023-02-22T00:19:41.204Z,14.48
2023-02-22T00:22:10.259Z,14.70
2023-02-22T00:24:37.964Z,15.27
2023-02-22T00:27:05.761Z,14.10
2023-02-22T00:29:34.588Z,13.50
2023-02-22T00:32:02.358Z,14.13
2023-02-22T00:34:30.126Z,12.95
2023-02-22T00:36:57.820Z,14.20
2023-02-22T00:39:27.006Z,14.77
2023-02-22T00:41:54.730Z,13.40
2023-02-22T00:44:22.504Z,12.57
2023-02-22T00:46:50.642Z,13.70
2023-02-22T00:49:18.324Z,13.30
2023-02-22T00:51:46.149Z,13.55
2023-02-22T00:54:14.416Z,13.60
2023-02-22T00:56:43.841Z,12.38
2023-02-22T00:59:11.546Z,11.80
2023-02-22T01:01:39.384Z,11.30
2023-02-22T01:04:07.138Z,12.40
2023-02-22T01:06:35.183Z,11.93
2023-02-22T01:09:04.876Z,10.82
2023-02-22T01:11:32.622Z,11.75
2023-02-22T01:14:03.526Z,11.80
2023-02-22T01:16:31.325Z,12.40
2023-02-22T01:19:01.293Z,10.20
2023-02-22T01:21:29.118Z,10.90
2023-02-22T01:23:56.885Z,10.45
2023-02-22T01:26:24.642Z,10.38
2023-02-22T01:28:53.174Z,11.55
2023-02-22T01:31:24.038Z,10.90
2023-02-22T01:33:52.098Z,12.52
2023-02-22T01:36:19.803Z,10.48
2023-02-22T01:38:47.672Z,12.40
2023-02-22T01:41:18.390Z,15.20
2023-02-22T01:43:46.550Z,12.90
2023-02-22T01:46:25.519Z,11.02
2023-02-22T01:48:57.892Z,14.85
2023-02-22T01:51:29.464Z,12.82
2023-02-22T01:54:02.711Z,10.00
2023-02-22T01:56:33.785Z,10.45
2023-02-22T01:59:06.728Z,9.05
2023-02-22T02:01:37.354Z,10.98
2023-02-22T02:04:08.752Z,11.07
2023-02-22T02:06:38.053Z,11.80
2023-02-22T02:09:11.767Z,10.90
2023-02-22T02:11:41.390Z,9.77
2023-02-22T02:14:11.049Z,8.32
2023-02-22T02:16:42.917Z,10.30
2023-02-22T02:19:20.368Z,11.00
2023-02-22T02:22:13.763Z,10.95
2023-02-22T02:25:18.988Z,9.88
2023-02-22T02:28:06.885Z,10.13
2023-02-22T02:30:50.841Z,11.32
2023-02-22T02:33:27.009Z,11.57
2023-02-22T02:36:04.022Z,12.52
2023-02-22T02:38:40.363Z,10.88
2023-02-22T02:41:14.234Z,11.52
2023-02-22T02:43:48.997Z,11.68
2023-02-22T02:46:21.637Z,13.32
2023-02-22T02:48:56.672Z,11.18
2023-02-22T02:51:29.512Z,11.27
2023-02-22T02:53:58.454Z,11.63
2023-02-22T02:56:26.411Z,12.02
2023-02-22T02:58:55.603Z,9.45
2023-02-22T03:01:45.123Z,13.88
2023-02-22T03:04:29.730Z,10.50
2023-02-22T03:07:17.417Z,9.63
2023-02-22T03:10:00.765Z,8.65
2023-02-22T03:12:39.818Z,10.18
2023-02-22T03:15:21.980Z,12.32
2023-02-22T03:17:55.255Z,9.85
2023-02-22T03:20:31.745Z,11.13
2023-02-22T03:23:05.904Z,9.40
2023-02-22T03:25:39.517Z,12.13
2023-02-22T03:28:11.725Z,12.40
2023-02-22T03:30:44.238Z,10.20
2023-02-22T03:33:16.904Z,10.55
2023-02-22T03:35:51.421Z,10.07
2023-02-22T03:38:22.059Z,10.82
2023-02-22T03:40:55.322Z,12.77
2023-02-22T03:43:26.636Z,10.80
2023-02-22T03:45:59.440Z,10.68
2023-02-22T03:48:32.483Z,10.10
2023-02-22T03:51:04.912Z,12.52
2023-02-22T03:53:37.526Z,12.52
2023-02-22T03:56:10.409Z,10.30
2023-02-22T03:58:43.996Z,9.90
2023-02-22T04:01:12.887Z,12.73
2023-02-22T04:03:42.107Z,12.13
2023-02-22T04:06:11.637Z,12.20
2023-02-22T04:08:40.016Z,14.85
2023-02-22T04:11:08.654Z,14.80
2023-02-22T04:13:36.546Z,11.93
2023-02-22T04:16:04.521Z,12.13
2023-02-22T04:18:32.471Z,11.80
2023-02-22T04:21:01.352Z,12.02
2023-02-22T04:23:36.274Z,12.35
2023-02-22T04:26:04.532Z,13.43
2023-02-22T04:28:32.253Z,13.13
2023-02-22T04:31:10.119Z,12.07
2023-02-22T04:33:38.629Z,14.30
2023-02-22T04:36:07.567Z,16.85
2023-02-22T04:38:37.588Z,16.17
2023-02-22T04:41:05.575Z,17.38
2023-02-22T04:43:33.642Z,11.75
2023-02-22T04:46:08.643Z,15.15
2023-02-22T04:48:36.444Z,15.98
2023-02-22T04:51:04.336Z,20.92
2023-02-22T04:53:33.228Z,13.57
2023-02-22T04:56:02.694Z,11.77
2023-02-22T04:58:31.788Z,12.80
2023-02-22T05:00:59.673Z,10.90
2023-02-22T05:03:27.888Z,13.10
2023-02-22T05:05:55.770Z,11.98
2023-02-22T05:08:23.526Z,15.90
2023-02-22T05:10:51.331Z,14.75
2023-02-22T05:13:20.381Z,13.75
2023-02-22T05:15:48.803Z,14.02
2023-02-22T05:18:17.076Z,14.40
2023-02-22T05:20:44.776Z,15.48
2023-02-22T05:23:12.529Z,12.60
2023-02-22T05:25:40.242Z,11.00
2023-02-22T05:28:12.558Z,12.90
2023-02-22T05:30:42.040Z,13.82
2023-02-22T05:33:10.693Z,14.02
2023-02-22T05:35:38.467Z,10.68
2023-02-22T05:38:07.005Z,10.07
2023-02-22T05:40:35.152Z,9.10
2023-02-22T05:43:03.859Z,9.40
2023-02-22T05:45:31.579Z,10.13
2023-02-22T05:48:00.993Z,13.15
2023-02-22T05:50:28.782Z,8.00
2023-02-22T05:52:56.749Z,7.25
2023-02-22T05:55:24.957Z,7.60
2023-02-22T05:57:53.382Z,9.57
2023-02-22T06:00:23.431Z,11.20
2023-02-22T06:02:55.594Z,11.15
2023-02-22T06:05:25.125Z,9.25
2023-02-22T06:07:53.791Z,8.93
2023-02-22T06:10:21.901Z,9.60
2023-02-22T06:12:50.350Z,9.85
2023-02-22T06:15:19.761Z,9.40
2023-02-22T06:17:48.436Z,11.35
2023-02-22T06:20:18.736Z,11.23
2023-02-22T06:22:49.780Z,10.18
2023-02-22T06:25:20.052Z,12.80
2023-02-22T06:27:47.859Z,9.23
2023-02-22T06:30:18.959Z,9.35
2023-02-22T06:32:46.680Z,9.32
2023-02-22T06:35:16.179Z,10.35
2023-02-22T06:37:43.961Z,10.80
2023-02-22T06:40:14.293Z,10.13
2023-02-22T06:42:42.523Z,13.93
2023-02-22T06:45:11.263Z,9.98
2023-02-22T06:47:40.237Z,9.25
2023-02-22T06:50:09.619Z,11.32
2023-02-22T06:52:37.330Z,11.25
2023-02-22T06:55:05.429Z,10.63
2023-02-22T06:57:34.550Z,12.38
2023-02-22T07:00:02.240Z,10.10
2023-02-22T07:02:29.974Z,12.02
2023-02-22T07:04:57.690Z,11.05
2023-02-22T07:07:25.547Z,11.65
2023-02-22T07:09:53.295Z,13.30
2023-02-22T07:12:21.062Z,11.05
2023-02-22T07:14:50.126Z,13.40
2023-02-22T07:17:17.843Z,13.00
2023-02-22T07:19:45.528Z,13.18
2023-02-22T07:22:13.325Z,13.38
2023-02-22T07:24:41.127Z,12.35
2023-02-22T07:27:08.830Z,10.57
2023-02-22T07:29:36.611Z,14.65
2023-02-22T07:32:05.829Z,12.75
2023-02-22T07:34:33.573Z,17.17
2023-02-22T07:37:01.281Z,15.05
2023-02-22T07:39:28.962Z,13.13
2023-02-22T07:41:56.687Z,17.38
2023-02-22T07:44:25.164Z,17.40
2023-02-22T07:46:52.889Z,17.50
2023-02-22T07:49:22.047Z,17.35
2023-02-22T07:51:49.803Z,15.60
2023-02-22T07:54:17.737Z,17.88
2023-02-22T07:56:46.726Z,15.15
2023-02-22T07:59:14.643Z,14.93
2023-02-22T08:01:42.883Z,18.40
2023-02-22T08:04:10.604Z,15.68
2023-02-22T08:06:39.732Z,16.60
2023-02-22T08:09:07.702Z,16.38
2023-02-22T08:11:35.475Z,17.25
2023-02-22T08:14:03.253Z,17.20
2023-02-22T08:16:30.945Z,18.40
2023-02-22T08:18:58.625Z,15.35
2023-02-22T08:21:26.448Z,16.70
2023-02-22T08:23:55.948Z,16.58
2023-02-22T08:26:25.301Z,15.77
2023-02-22T08:28:53.078Z,17.08
2023-02-22T08:31:20.983Z,18.17
2023-02-22T08:33:50.042Z,18.35
2023-02-22T08:36:18.581Z,19.23
2023-02-22T08:38:46.317Z,19.50
2023-02-22T08:41:15.630Z,17.45
2023-02-22T08:43:43.476Z,19.75
2023-02-22T08:46:11.307Z,18.88
2023-02-22T08:48:39.020Z,20.13
2023-02-22T08:51:07.080Z,20.20
2023-02-22T08:53:34.857Z,19.02
2023-02-22T08:56:02.582Z,20.52
2023-02-22T08:58:31.666Z,16.77
2023-02-22T09:00:59.386Z,19.52
2023-02-22T09:03:27.133Z,16.88
2023-02-22T09:05:55.448Z,19.65
2023-02-22T09:08:23.262Z,18.35
2023-02-22T09:10:51.801Z,20.42
2023-02-22T09:13:20.648Z,16.63
2023-02-22T09:15:49.793Z,17.92
2023-02-22T09:18:18.068Z,19.92
2023-02-22T09:20:45.847Z,21.88
2023-02-22T09:23:14.418Z,19.30
2023-02-22T09:25:42.185Z,18.67
2023-02-22T09:28:10.575Z,18.50
2023-02-22T09:30:38.738Z,15.93
2023-02-22T09:33:10.658Z,14.50
2023-02-22T09:35:42.365Z,14.57
2023-02-22T09:38:11.312Z,13.57
2023-02-22T09:40:45.105Z,13.00
2023-02-22T09:43:32.146Z,13.60
2023-02-22T09:46:12.059Z,13.65
2023-02-22T09:48:53.445Z,12.88
2023-02-22T09:51:27.452Z,12.98
2023-02-22T09:53:59.048Z,12.80
2023-02-22T09:56:27.999Z,11.70
2023-02-22T09:58:58.029Z,12.82
2023-02-22T10:01:29.140Z,10.82
2023-02-22T10:04:04.164Z,11.23
2023-02-22T10:06:34.693Z,12.27
2023-02-22T10:09:07.865Z,11.50
2023-02-22T10:11:50.313Z,13.32
2023-02-22T10:14:44.234Z,11.23
2023-02-22T10:17:22.291Z,11.75
2023-02-22T10:20:06.051Z,10.77
2023-02-22T10:22:45.905Z,11.27
2023-02-22T10:25:17.964Z,10.68
2023-02-22T10:27:49.220Z,11.10
2023-02-22T10:30:25.417Z,11.77
2023-02-22T10:35:27.487Z,9.77
2023-02-22T10:37:59.901Z,11.13
2023-02-22T10:40:33.009Z,10.68
2023-02-22T10:43:05.902Z,9.50
2023-02-22T10:45:37.050Z,11.20
2023-02-22T10:48:08.516Z,10.27
2023-02-22T10:50:40.809Z,8.90
2023-02-22T10:53:09.379Z,10.52
2023-02-22T10:55:39.049Z,9.70
2023-02-22T10:58:08.843Z,9.68
2023-02-22T11:00:38.225Z,10.68
2023-02-22T11:03:17.573Z,9.70
2023-02-22T11:05:46.863Z,9.60
2023-02-22T11:08:17.008Z,10.98
2023-02-22T11:10:44.741Z,10.73
2023-02-22T11:13:19.683Z,9.32
2023-02-22T11:15:47.942Z,9.95
2023-02-22T11:18:26.355Z,9.40
2023-02-22T11:21:07.653Z,8.57
2023-02-22T11:23:36.262Z,9.50
2023-02-22T11:26:08.393Z,10.00
2023-02-22T11:28:38.365Z,8.50
2023-02-22T11:31:17.383Z,9.25
2023-02-22T11:33:52.601Z,8.30
2023-02-22T11:36:43.939Z,8.65
2023-02-22T11:39:23.978Z,7.90
2023-02-22T11:41:52.215Z,7.60
2023-02-22T11:44:25.749Z,8.02
2023-02-22T11:46:55.845Z,7.93
2023-02-22T11:49:33.220Z,7.05
2023-02-22T11:52:19.271Z,8.38
2023-02-22T11:55:07.340Z,6.78
2023-02-22T11:57:49.707Z,6.68
2023-02-22T12:00:25.516Z,6.47
2023-02-22T12:03:14.648Z,5.85
2023-02-22T12:05:59.588Z,6.93
2023-02-22T12:08:37.906Z,7.00
2023-02-22T12:11:12.839Z,6.50
2023-02-22T12:13:59.962Z,6.07
2023-02-22T12:16:36.270Z,5.82
2023-02-22T12:19:12.553Z,5.97
2023-02-22T12:21:44.116Z,6.00
2023-02-22T12:24:18.571Z,7.15
2023-02-22T12:26:51.119Z,5.63
2023-02-22T12:29:27.614Z,5.82
2023-02-22T12:34:34.173Z,5.88
2023-02-22T12:37:08.546Z,5.47
2023-02-22T12:39:53.422Z,6.30
2023-02-22T12:42:29.209Z,5.97
2023-02-22T12:45:01.197Z,5.03
2023-02-22T12:47:37.718Z,5.53
2023-02-22T12:52:45.819Z,4.80
2023-02-22T12:55:19.331Z,4.95
2023-02-22T12:57:52.724Z,4.88
2023-02-22T13:00:26.181Z,4.90
2023-02-22T13:03:00.080Z,4.35
2023-02-22T13:05:31.429Z,4.90
2023-02-22T13:08:15.387Z,4.20
2023-02-22T13:11:09.483Z,4.70
2023-02-22T13:13:47.043Z,4.55
2023-02-22T13:16:27.988Z,4.97
2023-02-22T13:19:03.733Z,4.50
2023-02-22T13:21:44.295Z,4.60
2023-02-22T13:24:20.484Z,3.78
2023-02-22T13:26:53.708Z,4.93
2023-02-22T13:29:28.387Z,4.55
2023-02-22T13:32:15.628Z,4.78
2023-02-22T13:35:06.691Z,4.35
2023-02-22T13:37:57.527Z,4.47
2023-02-22T13:40:56.172Z,5.10
2023-02-22T13:43:44.255Z,4.80
2023-02-22T13:46:27.794Z,4.13
2023-02-22T13:49:16.922Z,4.93
2023-02-22T13:51:49.407Z,4.63
2023-02-22T13:54:24.601Z,4.93
2023-02-22T13:56:55.122Z,4.95
2023-02-22T13:59:27.873Z,4.68
2023-02-22T14:01:56.707Z,4.75
2023-02-22T14:04:45.573Z,5.88
2023-02-22T14:07:49.758Z,5.50
2023-02-22T14:10:56.124Z,5.50
2023-02-22T14:13:26.588Z,5.57
2023-02-22T14:16:25.258Z,4.95
2023-02-22T14:19:06.290Z,4.85
2023-02-22T14:21:35.593Z,5.15
2023-02-22T14:24:13.374Z,4.53
2023-02-22T14:26:53.926Z,4.18
2023-02-22T14:29:21.698Z,4.30
2023-02-22T14:32:10.622Z,4.40
2023-02-22T14:34:58.346Z,5.80
2023-02-22T14:37:28.577Z,5.00
2023-02-22T14:40:12.568Z,5.47
2023-02-22T14:42:45.102Z,5.80
2023-02-22T14:45:20.748Z,5.50
2023-02-22T14:48:01.013Z,5.03
2023-02-22T14:50:38.514Z,5.97
2023-02-22T14:53:14.295Z,5.63
2023-02-22T14:55:44.589Z,6.07
2023-02-22T14:58:18.685Z,5.35
2023-02-22T15:00:48.770Z,5.30
2023-02-22T15:03:32.675Z,5.05
2023-02-22T15:06:06.259Z,5.63
2023-02-22T15:08:34.517Z,6.10
2023-02-22T15:11:03.453Z,5.68
2023-02-22T15:13:34.207Z,5.60
2023-02-22T15:16:04.254Z,5.70
2023-02-22T15:18:39.652Z,4.90
2023-02-22T15:21:15.433Z,3.80
2023-02-22T15:23:46.086Z,3.78
2023-02-22T15:26:19.226Z,3.85
2023-02-22T15:28:48.319Z,3.33
2023-02-22T15:31:30.140Z,3.65
2023-02-22T15:34:11.670Z,4.28
2023-02-22T15:36:39.510Z,4.78
2023-02-22T15:39:08.823Z,4.80
2023-02-22T15:41:36.741Z,5.13
2023-02-22T15:44:17.745Z,5.20
2023-02-22T15:46:49.430Z,4.55
2023-02-22T15:49:24.317Z,3.78
2023-02-22T15:52:04.551Z,3.58
2023-02-22T15:54:40.541Z,4.05
2023-02-22T15:57:08.382Z,3.53
2023-02-22T15:59:45.058Z,3.90
2023-02-22T16:02:34.129Z,4.60
2023-02-22T16:05:06.931Z,4.53
2023-02-22T16:07:41.898Z,4.82
2023-02-22T16:10:22.792Z,4.00
2023-02-22T16:12:50.610Z,3.72
2023-02-22T16:15:19.659Z,4.20
2023-02-22T16:18:01.552Z,3.83
2023-02-22T16:20:33.588Z,3.92
2023-02-22T16:23:01.619Z,4.68
2023-02-22T16:25:35.668Z,4.78
2023-02-22T16:28:24.508Z,4.55
2023-02-22T16:30:58.462Z,4.60
2023-02-22T16:33:29.773Z,4.50
2023-02-22T16:35:58.981Z,3.90
2023-02-22T16:38:27.490Z,4.63
2023-02-22T16:40:58.215Z,4.63
2023-02-22T16:43:29.841Z,4.35
2023-02-22T16:45:57.596Z,3.97
2023-02-22T16:48:26.761Z,4.03
2023-02-22T16:50:56.402Z,3.58
2023-02-22T16:53:31.599Z,4.40
2023-02-22T16:56:04.349Z,4.10
2023-02-22T16:58:34.886Z,3.83
2023-02-22T17:03:30.445Z,3.63
2023-02-22T17:05:58.307Z,4.05
2023-02-22T17:08:27.427Z,4.03
2023-02-22T17:10:56.677Z,3.50
2023-02-22T17:13:27.610Z,3.80
2023-02-22T17:15:55.716Z,4.43
2023-02-22T17:18:28.512Z,3.80
2023-02-22T17:20:57.254Z,3.47
2023-02-22T17:23:27.502Z,4.15
2023-02-22T17:25:59.161Z,3.95
2023-02-22T17:28:27.839Z,4.40
2023-02-22T17:31:01.361Z,5.28
2023-02-22T17:33:32.924Z,6.75
2023-02-22T17:36:02.837Z,14.65
2023-02-22T17:38:32.236Z,16.27
2023-02-22T17:41:01.626Z,14.63
2023-02-22T17:43:30.015Z,14.18
2023-02-22T17:45:58.334Z,16.42
2023-02-22T17:48:26.748Z,13.95
2023-02-22T17:50:54.600Z,12.88
2023-02-22T17:53:24.680Z,12.73
2023-02-22T17:55:52.890Z,9.82
2023-02-22T17:58:23.612Z,10.20
2023-02-22T18:00:53.210Z,11.27
2023-02-22T18:03:25.659Z,7.75
2023-02-22T18:05:56.321Z,10.15
2023-02-22T18:08:24.930Z,10.40
2023-02-22T18:10:56.612Z,8.48
2023-02-22T18:13:27.958Z,7.68
2023-02-22T18:15:59.860Z,7.07
2023-02-22T18:18:28.291Z,8.05
2023-02-22T18:20:59.787Z,6.88
2023-02-22T18:23:29.552Z,11.35
2023-02-22T18:26:10.169Z,8.80
2023-02-22T18:28:40.922Z,7.82
2023-02-22T18:31:10.070Z,7.32
2023-02-22T18:33:37.945Z,7.68
2023-02-22T18:36:06.427Z,7.00
2023-02-22T18:38:34.205Z,7.00
2023-02-22T18:41:03.461Z,6.85
2023-02-22T18:43:34.164Z,7.80
2023-02-22T18:46:10.763Z,7.25
2023-02-22T18:51:12.032Z,5.30
2023-02-22T18:53:41.234Z,6.07
2023-02-22T18:56:11.082Z,6.88
2023-02-22T18:58:39.678Z,8.30
2023-02-22T19:01:09.923Z,8.13
2023-02-22T19:03:38.900Z,6.20
2023-02-22T19:06:09.620Z,6.85
2023-02-22T19:08:39.584Z,7.28
2023-02-22T19:11:09.191Z,8.57
2023-02-22T19:13:37.081Z,6.75
2023-02-22T19:16:07.241Z,8.57
2023-02-22T19:18:37.500Z,7.65
2023-02-22T19:21:08.924Z,7.28
2023-02-22T19:23:38.110Z,7.70
2023-02-22T19:26:09.399Z,8.50
2023-02-22T19:28:37.155Z,7.85
2023-02-22T19:31:13.395Z,7.43
2023-02-22T19:33:42.990Z,8.75
2023-02-22T19:36:12.425Z,9.82
2023-02-22T19:38:40.649Z,7.25
2023-02-22T19:41:10.338Z,7.85
2023-02-22T19:43:38.295Z,7.00
2023-02-22T19:46:06.815Z,5.85
2023-02-22T19:48:35.524Z,5.65
2023-02-22T19:51:06.270Z,6.65
2023-02-22T19:53:34.378Z,6.35
2023-02-22T19:56:06.975Z,8.00
2023-02-22T19:58:36.644Z,6.57
2023-02-22T20:01:12.184Z,8.18
2023-02-22T20:03:40.979Z,7.88
2023-02-22T20:06:10.760Z,7.05
2023-02-22T20:08:41.982Z,7.15
2023-02-22T20:11:10.698Z,9.50
2023-02-22T20:13:38.777Z,8.60
2023-02-22T20:16:07.690Z,7.10
2023-02-22T20:18:36.550Z,9.73
2023-02-22T20:21:08.435Z,7.80
2023-02-22T20:23:40.084Z,9.90
2023-02-22T20:26:16.136Z,7.82
2023-02-22T20:28:43.888Z,8.27
2023-02-22T20:31:13.746Z,8.98
2023-02-22T20:33:42.688Z,7.55
2023-02-22T20:36:12.418Z,8.60
2023-02-22T20:38:41.645Z,8.95
2023-02-22T20:41:12.795Z,9.10
2023-02-22T20:43:40.790Z,8.85
2023-02-22T20:46:09.042Z,8.60
2023-02-22T20:48:37.126Z,7.53
2023-02-22T20:51:08.977Z,8.68
2023-02-22T20:53:39.344Z,8.48
2023-02-22T20:56:12.304Z,10.50
2023-02-22T20:58:40.103Z,7.97
2023-02-22T21:01:11.912Z,8.60
2023-02-22T21:03:40.757Z,7.63
2023-02-22T21:06:09.989Z,8.15
2023-02-22T21:08:37.736Z,8.15
2023-02-22T21:11:12.787Z,7.15
2023-02-22T21:13:40.559Z,9.35
2023-02-22T21:16:10.321Z,8.02
2023-02-22T21:18:38.405Z,8.10
2023-02-22T21:21:10.112Z,7.82
2023-02-22T21:23:38.269Z,7.82
2023-02-22T21:26:07.074Z,7.32
2023-02-22T21:28:52.817Z,8.10
2023-02-22T21:31:22.904Z,10.18
2023-02-22T21:33:52.546Z,10.05
2023-02-22T21:36:24.917Z,10.70
2023-02-22T21:38:55.115Z,9.65
2023-02-22T21:41:27.563Z,9.73
2023-02-22T21:43:57.818Z,11.10
2023-02-22T21:46:26.395Z,12.15
2023-02-22T21:48:54.200Z,11.45
2023-02-22T21:51:23.599Z,12.77
2023-02-22T21:53:53.519Z,11.88
2023-02-22T21:56:24.215Z,13.02
2023-02-22T21:58:59.697Z,10.32
2023-02-22T22:01:28.383Z,13.10
2023-02-22T22:03:59.706Z,10.63
2023-02-22T22:06:28.621Z,10.98
2023-02-22T22:08:57.243Z,13.98
2023-02-22T22:11:25.269Z,11.68
2023-02-22T22:13:56.935Z,10.05
2023-02-22T22:16:29.766Z,10.88
2023-02-22T22:18:58.247Z,11.15
2023-02-22T22:21:26.679Z,11.80
2023-02-22T22:23:56.091Z,12.77
2023-02-22T22:26:25.410Z,11.73
2023-02-22T22:28:56.210Z,11.80
2023-02-22T22:31:26.819Z,13.27
2023-02-22T22:33:56.189Z,12.27
2023-02-22T22:36:25.981Z,12.77
2023-02-22T22:38:57.265Z,12.93
2023-02-22T22:41:27.966Z,15.90
2023-02-22T22:43:56.092Z,13.60
2023-02-22T22:46:24.247Z,17.77
2023-02-22T22:48:53.402Z,16.55
2023-02-22T22:51:22.593Z,18.20
2023-02-22T22:53:51.961Z,14.05
2023-02-22T22:56:25.883Z,18.17
2023-02-22T22:58:55.176Z,17.33
2023-02-22T23:01:27.256Z,18.40
2023-02-22T23:04:01.575Z,18.23
2023-02-22T23:06:32.933Z,15.98
2023-02-22T23:09:10.297Z,16.38
2023-02-22T23:11:44.150Z,15.65
2023-02-22T23:14:13.294Z,16.60
2023-02-22T23:16:42.500Z,17.45
2023-02-22T23:19:11.589Z,18.45
2023-02-22T23:21:42.666Z,19.63
2023-02-22T23:24:10.822Z,19.15
2023-02-22T23:26:38.549Z,21.70
2023-02-22T23:29:08.717Z,15.52
2023-02-22T23:31:39.567Z,17.80
2023-02-22T23:34:11.147Z,18.75
2023-02-22T23:36:44.208Z,22.83
2023-02-22T23:39:12.436Z,23.13
2023-02-22T23:41:40.173Z,19.27
2023-02-22T23:44:08.527Z,22.83
2023-02-22T23:46:36.524Z,22.90
2023-02-22T23:49:05.578Z,21.35
2023-02-22T23:51:39.229Z,23.05
2023-02-22T23:54:09.778Z,21.08
2023-02-22T23:56:40.259Z,26.00
2023-02-22T23:59:11.213Z,25.55
